Time;durP1;ratioP1;P1;durP2;ratioP2;P2;SDS_P1;SDS_P2;PMS_P1;PMS_P2;Temp;Humidity;BMP_temperature;BMP_pressure;BME280_temperature;BME280_humidity;BME280_pressure;Samples;Min_cycle;Max_cycle;Signal;HPM_P1;HPM_P2
2022/10/11 00:00:15;;;;;;;4.67;1.90;;;15.00;93.80;;;;;;4955343;28;20947;-70
2022/10/11 00:02:41;;;;;;;6.37;1.63;;;14.90;93.70;;;;;;4938538;29;20424;-69
2022/10/11 00:05:07;;;;;;;2.20;1.50;;;14.90;93.70;;;;;;4938319;29;20497;-69
2022/10/11 00:07:37;;;;;;;4.80;1.50;;;14.90;93.60;;;;;;4951866;29;20469;-70
2022/10/11 00:10:05;;;;;;;5.57;1.63;;;14.90;93.60;;;;;;4955481;28;20495;-69
2022/10/11 00:12:32;;;;;;;3.77;1.50;;;14.90;93.60;;;;;;4954348;29;20427;-69
2022/10/11 00:14:58;;;;;;;4.60;1.60;;;14.90;93.60;;;;;;4922739;29;20435;-69
2022/10/11 00:17:23;;;;;;;3.60;1.50;;;14.90;93.60;;;;;;4955073;28;20467;-69
2022/10/11 00:19:49;;;;;;;5.40;1.80;;;14.90;93.50;;;;;;4937950;29;20415;-69
2022/10/11 00:22:15;;;;;;;2.50;1.50;;;14.80;93.50;;;;;;4937628;29;20187;-69
2022/10/11 00:24:42;;;;;;;3.03;1.40;;;14.90;93.50;;;;;;4922201;29;20446;-70
2022/10/11 00:27:08;;;;;;;3.67;1.70;;;14.80;93.40;;;;;;4953082;29;20460;-70
2022/10/11 00:29:34;;;;;;;3.43;1.60;;;14.80;93.50;;;;;;4953849;29;20991;-69
2022/10/11 00:32:02;;;;;;;6.83;2.23;;;14.80;93.50;;;;;;4953432;29;20486;-69
2022/10/11 00:34:28;;;;;;;5.60;1.77;;;14.80;93.50;;;;;;4922128;29;20423;-70
2022/10/11 00:36:57;;;;;;;5.93;1.70;;;14.80;93.50;;;;;;4937427;29;20469;-70
2022/10/11 00:39:23;;;;;;;3.57;1.80;;;14.80;93.50;;;;;;4920475;29;20961;-69
2022/10/11 00:41:49;;;;;;;4.83;1.40;;;14.80;93.50;;;;;;4937394;29;20976;-69
2022/10/11 00:44:21;;;;;;;4.47;1.67;;;14.70;93.50;;;;;;4954878;28;20400;-69
2022/10/11 00:47:05;;;;;;;4.37;1.93;;;14.80;93.60;;;;;;4933917;29;20454;-69
2022/10/11 00:49:38;;;;;;;2.97;1.50;;;14.70;93.60;;;;;;4936392;29;20438;-70
2022/10/11 00:52:22;;;;;;;1.80;1.30;;;14.70;93.60;;;;;;4942402;29;20420;-69
2022/10/11 00:54:50;;;;;;;2.87;1.50;;;14.70;93.60;;;;;;4921395;29;20448;-69
2022/10/11 00:57:20;;;;;;;3.70;1.53;;;14.70;93.60;;;;;;4954473;28;20490;-69
2022/10/11 00:59:52;;;;;;;3.87;1.70;;;14.60;93.50;;;;;;4937079;29;21344;-70
2022/10/11 01:02:20;;;;;;;2.43;1.43;;;14.70;93.50;;;;;;4937288;29;20539;-70
2022/10/11 01:04:46;;;;;;;4.90;2.10;;;14.60;93.50;;;;;;4952738;29;20415;-69
2022/10/11 01:07:12;;;;;;;2.67;1.60;;;14.60;93.40;;;;;;4954018;28;20490;-69
2022/10/11 01:09:38;;;;;;;6.43;1.80;;;14.60;93.40;;;;;;4952270;28;20439;-69
2022/10/11 01:12:16;;;;;;;2.70;1.57;;;14.60;93.40;;;;;;4952852;29;20437;-70
2022/10/11 01:14:44;;;;;;;3.10;1.50;;;14.60;93.40;;;;;;4953232;28;20522;-69
2022/10/11 01:17:13;;;;;;;5.20;2.40;;;14.50;93.30;;;;;;4953058;29;20474;-70
2022/10/11 01:19:50;;;;;;;4.30;1.43;;;14.50;93.30;;;;;;4953047;28;20441;-69
2022/10/11 01:22:28;;;;;;;2.17;1.63;;;14.50;93.30;;;;;;4937091;29;20431;-70
2022/10/11 01:25:13;;;;;;;3.73;1.70;;;14.50;93.30;;;;;;4952111;28;21030;-69
2022/10/11 01:28:00;;;;;;;3.77;1.70;;;14.50;93.20;;;;;;4952693;29;20464;-69
2022/10/11 01:30:35;;;;;;;3.90;1.90;;;14.50;93.40;;;;;;4952126;29;20455;-69
2022/10/11 01:33:26;;;;;;;3.77;1.50;;;14.50;93.20;;;;;;4933493;29;20659;-70
2022/10/11 01:36:05;;;;;;;6.53;1.80;;;14.50;93.20;;;;;;4933595;29;20961;-69
2022/10/11 01:38:44;;;;;;;4.13;1.40;;;14.40;93.10;;;;;;4936039;29;20972;-69
2022/10/11 01:41:24;;;;;;;2.80;1.60;;;14.40;93.10;;;;;;4951918;28;20511;-69
2022/10/11 01:43:58;;;;;;;5.07;1.93;;;14.40;93.00;;;;;;4952283;29;20421;-69
2022/10/11 01:46:27;;;;;;;1.90;1.40;;;14.40;93.00;;;;;;4953488;28;20526;-69
2022/10/11 01:48:56;;;;;;;6.07;1.93;;;14.40;93.00;;;;;;4936736;29;20776;-69
2022/10/11 01:51:26;;;;;;;2.47;1.70;;;14.40;92.90;;;;;;4934802;29;20933;-69
2022/10/11 01:53:57;;;;;;;2.50;1.60;;;14.30;92.90;;;;;;4930228;29;20431;-69
2022/10/11 01:56:55;;;;;;;4.00;1.60;;;14.30;92.90;;;;;;4903999;29;20514;-69
2022/10/11 01:59:33;;;;;;;6.30;1.73;;;14.40;92.80;;;;;;4936223;29;20525;-69
2022/10/11 02:02:27;;;;;;;2.73;1.57;;;14.30;92.60;;;;;;4952698;29;20428;-69
2022/10/11 02:05:16;;;;;;;4.57;1.73;;;14.30;92.60;;;;;;4933513;29;20987;-69
2022/10/11 02:08:08;;;;;;;3.30;1.70;;;14.30;92.60;;;;;;4938028;29;20525;-69
2022/10/11 02:10:47;;;;;;;5.30;2.37;;;14.30;92.60;;;;;;4953100;28;20435;-69
2022/10/11 02:13:30;;;;;;;6.53;2.20;;;14.20;92.50;;;;;;4936184;29;20423;-69
2022/10/11 02:16:00;;;;;;;7.10;2.27;;;14.20;92.50;;;;;;4952302;29;20460;-69
2022/10/11 02:18:32;;;;;;;4.27;2.17;;;14.20;92.50;;;;;;4952187;29;20531;-69
2022/10/11 02:21:04;;;;;;;8.20;2.40;;;14.20;92.80;;;;;;4936887;29;20454;-69
2022/10/11 02:23:37;;;;;;;6.97;2.97;;;14.20;92.40;;;;;;4954362;29;20478;-69
2022/10/11 02:26:05;;;;;;;4.80;2.37;;;14.20;92.40;;;;;;4957408;28;20539;-69
2022/10/11 02:28:35;;;;;;;6.10;2.37;;;14.20;92.40;;;;;;4940012;29;20457;-70
2022/10/11 02:31:04;;;;;;;4.70;2.70;;;14.20;92.40;;;;;;4939823;29;20435;-70
2022/10/11 02:33:36;;;;;;;7.00;2.10;;;14.10;92.30;;;;;;4923842;29;20821;-70
2022/10/11 02:36:26;;;;;;;6.17;2.70;;;14.10;92.30;;;;;;4940224;29;20435;-70
2022/10/11 02:39:02;;;;;;;4.00;1.90;;;14.10;92.30;;;;;;4920902;29;20827;-69
2022/10/11 02:41:42;;;;;;;4.10;2.00;;;14.10;92.30;;;;;;5068972;28;20582;-70
2022/10/11 02:44:22;;;;;;;5.57;1.90;;;14.10;92.30;;;;;;5066257;28;20539;-70
2022/10/11 02:46:49;;;;;;;7.23;1.83;;;14.10;92.30;;;;;;5047682;28;20913;-70
2022/10/11 02:49:16;;;;;;;8.30;2.00;;;14.10;92.40;;;;;;5028173;28;20424;-70
2022/10/11 02:51:45;;;;;;;4.10;2.27;;;14.10;92.30;;;;;;5038764;28;20465;-70
2022/10/11 02:54:17;;;;;;;4.03;2.00;;;14.10;92.40;;;;;;5032539;28;20404;-70
2022/10/11 02:56:43;;;;;;;3.37;1.83;;;14.00;92.30;;;;;;5039955;28;20808;-70
2022/10/11 02:59:09;;;;;;;5.07;1.90;;;14.00;92.30;;;;;;5047130;28;20513;-70
2022/10/11 03:01:35;;;;;;;7.27;2.17;;;14.00;92.30;;;;;;5038573;28;20483;-70
2022/10/11 03:04:01;;;;;;;4.27;2.23;;;14.00;92.20;;;;;;5041180;28;20415;-70
2022/10/11 03:06:29;;;;;;;8.40;2.10;;;14.00;92.20;;;;;;5041048;28;20480;-70
2022/10/11 03:08:57;;;;;;;6.80;2.00;;;14.00;92.20;;;;;;5047230;28;20496;-71
2022/10/11 03:11:23;;;;;;;2.60;1.80;;;13.90;92.10;;;;;;5021477;28;20436;-70
2022/10/11 03:13:49;;;;;;;2.17;1.50;;;13.90;92.10;;;;;;5046899;28;20423;-70
2022/10/11 03:16:15;;;;;;;2.13;1.67;;;13.90;92.10;;;;;;5046816;28;20449;-70
2022/10/11 03:18:44;;;;;;;4.40;2.57;;;13.90;92.10;;;;;;5038834;28;20480;-70
2022/10/11 03:21:12;;;;;;;2.70;1.80;;;13.90;92.10;;;;;;4995237;28;20471;-70
2022/10/11 03:23:41;;;;;;;2.27;1.53;;;13.90;92.10;;;;;;5028297;28;20435;-70
2022/10/11 03:26:09;;;;;;;4.37;1.83;;;13.90;92.10;;;;;;5027334;28;20833;-70
2022/10/11 03:28:38;;;;;;;3.17;1.73;;;13.80;92.00;;;;;;5028043;28;20814;-70
2022/10/11 03:31:06;;;;;;;2.83;1.70;;;13.80;92.00;;;;;;5042265;28;20524;-72
2022/10/11 03:33:32;;;;;;;6.20;2.23;;;13.80;92.00;;;;;;5011097;28;20842;-71
2022/10/11 03:35:58;;;;;;;5.70;1.80;;;13.80;92.00;;;;;;5013671;28;20461;-72
2022/10/11 03:38:24;;;;;;;5.23;1.80;;;13.80;92.00;;;;;;5045695;28;20818;-72
2022/10/11 03:40:53;;;;;;;3.93;1.90;;;13.80;92.00;;;;;;5027294;28;20475;-71
2022/10/11 03:43:21;;;;;;;6.47;2.03;;;13.80;92.00;;;;;;5020731;28;20427;-71
2022/10/11 03:45:48;;;;;;;4.40;2.23;;;13.70;91.90;;;;;;5019175;28;20897;-71
2022/10/11 03:48:16;;;;;;;4.20;1.80;;;13.80;91.90;;;;;;5027061;28;20459;-71
2022/10/11 03:50:44;;;;;;;5.30;1.60;;;13.70;91.90;;;;;;5037137;28;20419;-71
2022/10/11 03:53:10;;;;;;;3.30;2.10;;;13.70;91.80;;;;;;4994785;28;20463;-71
2022/10/11 03:56:08;;;;;;;6.77;1.87;;;13.70;91.80;;;;;;5021881;28;20451;-71
2022/10/11 03:58:34;;;;;;;4.03;1.63;;;13.70;91.80;;;;;;5015887;28;20426;-71
2022/10/11 04:01:00;;;;;;;3.53;2.10;;;13.70;91.80;;;;;;5029957;28;20832;-72
2022/10/11 04:03:28;;;;;;;2.53;1.70;;;13.60;91.70;;;;;;5022372;28;20420;-71
2022/10/11 04:05:54;;;;;;;2.47;2.10;;;13.60;91.70;;;;;;5031252;28;20400;-71
2022/10/11 04:08:20;;;;;;;4.80;1.80;;;13.60;91.70;;;;;;5013163;28;20435;-71
2022/10/11 04:10:47;;;;;;;4.00;1.80;;;13.60;91.70;;;;;;5029794;28;20255;-71
2022/10/11 04:13:16;;;;;;;3.50;1.77;;;13.60;91.70;;;;;;5033582;28;20407;-70
2022/10/11 04:15:48;;;;;;;2.87;1.60;;;13.60;91.70;;;;;;5023478;28;20455;-71
2022/10/11 04:18:14;;;;;;;7.67;1.83;;;13.60;91.60;;;;;;5005555;28;20442;-71
2022/10/11 04:20:40;;;;;;;3.30;1.67;;;13.60;91.60;;;;;;5034261;28;20447;-71
2022/10/11 04:23:06;;;;;;;6.30;2.20;;;13.60;91.60;;;;;;5020428;28;20411;-71
2022/10/11 04:25:32;;;;;;;5.20;1.90;;;13.60;91.60;;;;;;5014298;28;20488;-70
2022/10/11 04:27:58;;;;;;;3.47;2.07;;;13.50;91.50;;;;;;5027245;28;20435;-71
2022/10/11 04:30:27;;;;;;;3.50;2.20;;;13.50;91.50;;;;;;5016319;28;20449;-71
2022/10/11 04:32:53;;;;;;;5.13;2.27;;;13.50;91.50;;;;;;5020287;28;20975;-71
2022/10/11 04:35:23;;;;;;;6.40;2.33;;;13.50;91.50;;;;;;5015165;28;21034;-71
2022/10/11 04:37:51;;;;;;;3.10;1.63;;;13.50;91.50;;;;;;5032889;28;20538;-71
2022/10/11 04:40:18;;;;;;;3.37;1.80;;;13.50;91.50;;;;;;5029168;28;20509;-71
2022/10/11 04:42:46;;;;;;;3.30;2.10;;;13.50;91.50;;;;;;4996654;28;20420;-71
2022/10/11 04:45:21;;;;;;;3.77;2.10;;;13.50;91.40;;;;;;5033525;28;20894;-71
2022/10/11 04:47:50;;;;;;;2.77;2.10;;;13.50;91.40;;;;;;5014735;28;20455;-70
2022/10/11 04:50:16;;;;;;;4.53;2.07;;;13.40;91.40;;;;;;5012556;28;20494;-70
2022/10/11 04:53:07;;;;;;;5.00;1.97;;;13.40;91.30;;;;;;5008072;28;20444;-70
2022/10/11 04:55:33;;;;;;;3.30;1.70;;;13.40;91.30;;;;;;5019451;28;20460;-71
2022/10/11 04:58:04;;;;;;;4.27;2.30;;;13.40;91.30;;;;;;5015822;28;20468;-70
2022/10/11 05:00:32;;;;;;;5.80;2.33;;;13.40;91.30;;;;;;5033309;28;20967;-70
2022/10/11 05:03:03;;;;;;;3.10;1.70;;;13.40;91.30;;;;;;5027605;28;20464;-70
2022/10/11 05:05:28;;;;;;;4.43;2.10;;;13.40;91.60;;;;;;4991324;28;20417;-70
2022/10/11 05:07:54;;;;;;;4.23;2.03;;;13.40;91.30;;;;;;5004193;28;20547;-71
2022/10/11 05:10:20;;;;;;;5.47;2.20;;;13.40;91.20;;;;;;5013306;28;20977;-70
2022/10/11 05:12:57;;;;;;;3.90;2.00;;;13.30;91.20;;;;;;5020111;28;20547;-72
2022/10/11 05:15:25;;;;;;;4.43;2.00;;;13.30;91.10;;;;;;5008689;28;20439;-72
2022/10/11 05:17:53;;;;;;;8.63;2.60;;;13.30;91.10;;;;;;5015323;28;20446;-71
2022/10/11 05:20:19;;;;;;;5.03;2.57;;;13.30;91.10;;;;;;5032488;28;20877;-74
2022/10/11 05:22:48;;;;;;;5.60;2.17;;;13.30;91.10;;;;;;5025694;28;20453;-71
2022/10/11 05:25:22;;;;;;;2.90;2.13;;;13.30;91.00;;;;;;5031971;28;20170;-71
2022/10/11 05:28:06;;;;;;;6.10;2.20;;;13.30;91.00;;;;;;4993281;28;20437;-71
2022/10/11 05:30:35;;;;;;;3.40;2.10;;;13.20;91.00;;;;;;4991637;28;20448;-71
2022/10/11 05:33:01;;;;;;;3.13;2.30;;;13.20;91.00;;;;;;4976144;28;20414;-71
2022/10/11 05:35:29;;;;;;;4.70;1.80;;;13.20;90.90;;;;;;4993526;28;20808;-71
2022/10/11 05:37:55;;;;;;;3.20;2.20;;;13.20;90.90;;;;;;4991933;28;20448;-71
2022/10/11 05:40:21;;;;;;;4.10;2.13;;;13.20;90.90;;;;;;4992012;28;20484;-71
2022/10/11 05:42:52;;;;;;;6.63;2.20;;;13.20;90.90;;;;;;5023929;28;20421;-71
2022/10/11 05:45:18;;;;;;;4.07;2.03;;;13.20;90.90;;;;;;4992259;28;20479;-71
2022/10/11 05:47:47;;;;;;;4.47;1.93;;;13.20;90.80;;;;;;4992005;28;20460;-71
2022/10/11 05:50:12;;;;;;;4.93;2.00;;;13.20;90.80;;;;;;4991991;28;20425;-71
2022/10/11 05:52:41;;;;;;;2.50;2.00;;;13.20;90.80;;;;;;4991852;28;21025;-71
2022/10/11 05:55:07;;;;;;;4.60;2.30;;;13.10;90.70;;;;;;5008271;28;20404;-71
2022/10/11 05:57:33;;;;;;;3.07;2.50;;;13.10;90.70;;;;;;4992044;28;20448;-71
2022/10/11 06:00:05;;;;;;;4.70;2.37;;;13.10;90.70;;;;;;5007646;28;20972;-71
2022/10/11 06:02:40;;;;;;;5.70;3.10;;;13.10;90.70;;;;;;5006626;28;20425;-71
2022/10/11 06:05:09;;;;;;;2.57;2.17;;;13.10;90.70;;;;;;4991935;28;20535;-71
2022/10/11 06:07:36;;;;;;;6.87;2.43;;;13.10;90.70;;;;;;4991882;28;20454;-71
2022/10/11 06:10:03;;;;;;;2.40;2.20;;;13.00;90.70;;;;;;4992792;28;20416;-71
2022/10/11 06:12:30;;;;;;;3.83;2.63;;;13.00;90.60;;;;;;5025946;28;20425;-71
2022/10/11 06:14:58;;;;;;;3.87;2.63;;;13.00;90.60;;;;;;5030496;28;20516;-71
2022/10/11 06:17:24;;;;;;;4.43;2.83;;;13.00;90.60;;;;;;5030899;28;20486;-71
2022/10/11 06:19:50;;;;;;;4.73;2.97;;;13.00;90.60;;;;;;5014499;28;20513;-71
2022/10/11 06:22:21;;;;;;;3.00;2.40;;;13.00;90.60;;;;;;5029741;28;20193;-71
2022/10/11 06:24:47;;;;;;;3.37;2.67;;;13.00;90.60;;;;;;5011044;28;20415;-71
2022/10/11 06:27:18;;;;;;;4.40;2.57;;;13.00;90.60;;;;;;5010899;28;20804;-71
2022/10/11 06:29:44;;;;;;;6.53;3.10;;;13.00;90.60;;;;;;5010723;28;20843;-71
2022/10/11 06:32:12;;;;;;;3.87;2.67;;;13.00;90.60;;;;;;5010923;28;20461;-71
2022/10/11 06:34:38;;;;;;;4.10;2.57;;;13.00;90.60;;;;;;5011185;28;20188;-71
2022/10/11 06:37:04;;;;;;;3.33;2.53;;;12.90;90.60;;;;;;5010881;28;20431;-71
2022/10/11 06:39:30;;;;;;;5.57;2.90;;;12.90;90.60;;;;;;5011820;28;20404;-71
2022/10/11 06:41:58;;;;;;;4.87;2.73;;;12.90;90.60;;;;;;5010648;28;20408;-71
2022/10/11 06:44:27;;;;;;;6.73;3.10;;;12.90;90.60;;;;;;5010668;28;20412;-71
2022/10/11 06:46:53;;;;;;;3.80;2.70;;;12.90;90.70;;;;;;5010802;28;20447;-71
2022/10/11 06:49:22;;;;;;;4.50;2.80;;;12.90;90.70;;;;;;4994680;28;20413;-71
2022/10/11 06:51:48;;;;;;;5.00;2.90;;;12.90;90.70;;;;;;5011026;28;20910;-71
2022/10/11 06:54:21;;;;;;;6.10;3.20;;;12.90;91.10;;;;;;4994293;28;20449;-71
2022/10/11 06:56:47;;;;;;;4.67;3.17;;;12.90;90.70;;;;;;5010726;28;20509;-71
2022/10/11 06:59:24;;;;;;;5.90;3.20;;;12.90;90.80;;;;;;5010759;28;20411;-71
2022/10/11 07:01:50;;;;;;;8.63;3.87;;;12.80;90.80;;;;;;4994365;28;20837;-71
2022/10/11 07:04:18;;;;;;;3.60;2.70;;;12.80;90.80;;;;;;5010607;28;20411;-71
2022/10/11 07:06:44;;;;;;;6.50;3.50;;;12.80;90.80;;;;;;5026878;28;20471;-71
2022/10/11 07:09:10;;;;;;;9.33;3.63;;;12.80;90.90;;;;;;5027991;28;20458;-71
2022/10/11 07:11:41;;;;;;;4.10;3.43;;;12.80;90.90;;;;;;5014142;28;20411;-71
2022/10/11 07:14:08;;;;;;;6.93;3.53;;;12.80;91.00;;;;;;5031366;28;20406;-71
2022/10/11 07:16:38;;;;;;;6.60;3.20;;;12.80;91.00;;;;;;5030249;28;20447;-71
2022/10/11 07:19:09;;;;;;;5.47;3.40;;;12.80;91.00;;;;;;5046639;28;20438;-71
2022/10/11 07:21:37;;;;;;;5.87;3.50;;;12.80;91.10;;;;;;5029988;28;20464;-71
2022/10/11 07:24:03;;;;;;;7.43;3.33;;;12.80;91.20;;;;;;5031324;28;20553;-70
2022/10/11 07:26:32;;;;;;;6.40;4.10;;;12.80;91.20;;;;;;5030923;28;20425;-70
2022/10/11 07:29:08;;;;;;;6.00;3.70;;;12.80;91.30;;;;;;5049999;28;20441;-70
2022/10/11 07:31:36;;;;;;;4.43;3.63;;;12.80;91.30;;;;;;5000719;28;20466;-70
2022/10/11 07:34:10;;;;;;;5.03;3.50;;;12.80;91.40;;;;;;5029128;28;20807;-70
2022/10/11 07:36:38;;;;;;;6.03;3.70;;;12.80;91.50;;;;;;5003274;28;20461;-70
2022/10/11 07:39:07;;;;;;;4.57;3.47;;;12.80;91.50;;;;;;5026691;28;20449;-70
2022/10/11 07:41:37;;;;;;;7.50;3.70;;;12.80;91.60;;;;;;5010691;28;20543;-70
2022/10/11 07:44:06;;;;;;;4.47;3.77;;;12.80;91.60;;;;;;5010227;28;20403;-70
2022/10/11 07:46:32;;;;;;;5.77;4.07;;;12.80;91.70;;;;;;5010508;28;20432;-70
2022/10/11 07:48:58;;;;;;;5.27;3.43;;;12.80;91.80;;;;;;5010712;28;20780;-70
2022/10/11 07:51:25;;;;;;;8.60;3.40;;;12.80;91.80;;;;;;4995123;28;20968;-70
2022/10/11 07:53:54;;;;;;;5.40;3.93;;;12.80;91.90;;;;;;4994615;28;20907;-70
2022/10/11 07:56:23;;;;;;;7.73;4.13;;;12.80;91.90;;;;;;4994131;28;20487;-70
2022/10/11 07:58:53;;;;;;;4.70;3.50;;;12.80;92.00;;;;;;5010465;28;20943;-70
2022/10/11 08:01:20;;;;;;;6.37;3.60;;;12.80;92.00;;;;;;5010315;28;20826;-70
2022/10/11 08:03:46;;;;;;;6.93;3.77;;;12.80;92.10;;;;;;4995171;28;20769;-70
2022/10/11 08:06:19;;;;;;;8.50;4.03;;;12.80;92.10;;;;;;5027201;28;20521;-70
2022/10/11 08:08:46;;;;;;;3.80;3.33;;;12.80;92.20;;;;;;5019482;28;20959;-70
2022/10/11 08:11:26;;;;;;;6.53;3.67;;;12.80;92.30;;;;;;5014801;28;20404;-70
2022/10/11 08:13:53;;;;;;;4.80;3.50;;;12.80;92.30;;;;;;5013231;28;20992;-70
2022/10/11 08:16:20;;;;;;;6.13;3.90;;;12.80;92.40;;;;;;5014507;28;20450;-70
2022/10/11 08:18:50;;;;;;;7.47;4.03;;;12.80;92.40;;;;;;5014630;28;20403;-70
2022/10/11 08:21:19;;;;;;;5.73;3.43;;;12.80;92.50;;;;;;5013264;28;20471;-70
2022/10/11 08:23:45;;;;;;;6.27;3.43;;;12.80;92.50;;;;;;5013376;28;20896;-70
2022/10/11 08:26:11;;;;;;;4.53;3.93;;;12.80;92.50;;;;;;5013264;28;20821;-70
2022/10/11 08:28:37;;;;;;;6.13;4.00;;;12.80;92.50;;;;;;5013122;28;20403;-70
2022/10/11 08:31:06;;;;;;;6.73;4.20;;;12.80;92.60;;;;;;5013353;28;20439;-70
2022/10/11 08:33:32;;;;;;;7.10;4.07;;;12.80;92.60;;;;;;5029792;28;20403;-70
2022/10/11 08:35:58;;;;;;;5.27;4.13;;;12.80;92.70;;;;;;5013237;28;20411;-70
2022/10/11 08:38:37;;;;;;;7.10;4.70;;;12.80;92.70;;;;;;5012798;28;20545;-70
2022/10/11 08:41:23;;;;;;;5.80;4.83;;;12.80;92.70;;;;;;5033990;28;20560;-70
2022/10/11 08:44:22;;;;;;;7.73;4.30;;;12.80;92.80;;;;;;5016263;28;20478;-70
2022/10/11 08:46:55;;;;;;;6.50;4.93;;;12.90;93.00;;;;;;5032883;28;20455;-70
2022/10/11 08:49:30;;;;;;;6.77;4.90;;;12.80;93.00;;;;;;5033673;28;20451;-70
2022/10/11 08:52:49;;;;;;;8.60;5.73;;;12.90;93.20;;;;;;5033337;28;20428;-70
2022/10/11 08:55:23;;;;;;;7.90;5.40;;;12.90;93.20;;;;;;5033216;28;20516;-70
2022/10/11 08:57:54;;;;;;;8.77;6.03;;;12.90;93.30;;;;;;5032523;28;21003;-70
2022/10/11 09:00:23;;;;;;;10.43;6.17;;;12.90;93.30;;;;;;5015140;28;20463;-70
2022/10/11 09:03:09;;;;;;;10.63;6.23;;;12.90;93.40;;;;;;5032768;28;20419;-70
2022/10/11 09:06:18;;;;;;;7.83;6.00;;;12.90;93.50;;;;;;5030322;28;20957;-70
2022/10/11 09:09:03;;;;;;;13.03;7.30;;;12.90;93.60;;;;;;5028656;28;20507;-70
2022/10/11 09:11:49;;;;;;;10.00;7.00;;;12.90;93.80;;;;;;5012453;28;20488;-70
2022/10/11 09:14:34;;;;;;;9.23;6.47;;;12.90;93.90;;;;;;5012443;28;20407;-70
2022/10/11 09:17:05;;;;;;;9.03;6.13;;;13.00;94.00;;;;;;5012404;28;20458;-70
2022/10/11 09:19:31;;;;;;;10.07;8.10;;;13.00;93.90;;;;;;4996107;28;20443;-70
2022/10/11 09:22:51;;;;;;;9.90;7.77;;;13.00;93.90;;;;;;5013496;28;20439;-70
2022/10/11 09:25:31;;;;;;;14.20;8.30;;;13.00;94.00;;;;;;4994728;28;20203;-70
2022/10/11 09:28:16;;;;;;;11.03;8.23;;;13.00;94.00;;;;;;5010987;28;21014;-70
2022/10/11 09:30:53;;;;;;;14.50;9.03;;;13.00;94.10;;;;;;5010840;28;20553;-70
2022/10/11 09:33:33;;;;;;;14.60;10.10;;;13.10;94.10;;;;;;5011096;28;20456;-70
2022/10/11 09:36:00;;;;;;;16.87;11.23;;;13.10;94.00;;;;;;5010832;28;20426;-71
2022/10/11 09:38:33;;;;;;;14.10;10.00;;;13.10;94.00;;;;;;5010741;28;20404;-70
2022/10/11 09:41:26;;;;;;;14.47;9.73;;;13.10;94.00;;;;;;4994080;28;20899;-70
2022/10/11 09:43:52;;;;;;;12.50;9.40;;;13.20;93.90;;;;;;5010790;28;20467;-70
2022/10/11 09:46:22;;;;;;;18.73;10.23;;;13.20;93.90;;;;;;4994488;28;20475;-70
2022/10/11 09:48:50;;;;;;;19.70;11.20;;;13.20;93.90;;;;;;4993909;28;20439;-70
2022/10/11 09:51:22;;;;;;;16.83;12.70;;;13.20;93.90;;;;;;4994455;28;20505;-70
2022/10/11 09:54:03;;;;;;;18.40;12.50;;;13.20;94.00;;;;;;5022751;28;20446;-70
2022/10/11 09:56:33;;;;;;;18.53;12.23;;;13.20;94.10;;;;;;5026855;28;20476;-70
2022/10/11 09:59:28;;;;;;;18.33;12.10;;;13.30;94.20;;;;;;5032517;28;20472;-70
2022/10/11 10:02:15;;;;;;;22.63;13.20;;;13.30;94.20;;;;;;4996784;28;20502;-70
2022/10/11 10:05:10;;;;;;;19.40;13.43;;;13.30;94.20;;;;;;4979155;28;20478;-70
2022/10/11 10:07:39;;;;;;;23.50;14.00;;;13.30;94.30;;;;;;5005867;28;20469;-70
2022/10/11 10:10:26;;;;;;;20.83;15.73;;;13.30;94.30;;;;;;4991737;28;20412;-71
2022/10/11 10:12:54;;;;;;;21.00;14.50;;;13.40;94.40;;;;;;4991819;28;20966;-70
2022/10/11 10:15:20;;;;;;;20.27;14.17;;;13.40;94.40;;;;;;4992978;28;20405;-70
2022/10/11 10:17:51;;;;;;;24.10;15.33;;;13.40;94.40;;;;;;4991912;28;20455;-70
2022/10/11 10:20:32;;;;;;;19.40;15.27;;;13.50;94.50;;;;;;4991707;28;20452;-70
2022/10/11 10:23:05;;;;;;;23.47;16.77;;;13.40;94.50;;;;;;4991661;28;20504;-70
2022/10/11 10:25:35;;;;;;;27.23;15.87;;;13.50;94.60;;;;;;4959436;28;20449;-70
2022/10/11 10:28:15;;;;;;;22.70;15.40;;;13.50;94.60;;;;;;5007934;28;20437;-70
2022/10/11 10:30:54;;;;;;;23.53;15.40;;;13.50;94.60;;;;;;5007889;28;20455;-70
2022/10/11 10:33:22;;;;;;;24.27;16.47;;;13.50;94.60;;;;;;5007906;28;20445;-70
2022/10/11 10:36:20;;;;;;;21.43;13.73;;;13.60;94.70;;;;;;4991875;28;20489;-70
2022/10/11 10:39:21;;;;;;;22.37;13.43;;;13.60;94.70;;;;;;5005609;28;20436;-70
2022/10/11 10:41:47;;;;;;;18.43;14.23;;;13.60;94.60;;;;;;5011045;28;20467;-70
2022/10/11 10:44:14;;;;;;;20.30;14.77;;;13.60;94.50;;;;;;5011727;28;20522;-70
2022/10/11 10:47:19;;;;;;;19.93;13.77;;;13.60;94.40;;;;;;4994577;28;20486;-70
2022/10/11 10:50:17;;;;;;;27.53;15.53;;;13.70;94.40;;;;;;4994686;28;20418;-70
2022/10/11 10:52:58;;;;;;;22.30;14.87;;;13.70;94.50;;;;;;4997957;28;20445;-70
2022/10/11 10:55:41;;;;;;;22.83;15.07;;;13.70;94.80;;;;;;5011160;28;20431;-70
2022/10/11 10:58:43;;;;;;;24.37;17.20;;;13.70;94.80;;;;;;5027300;28;20405;-70
2022/10/11 11:01:21;;;;;;;19.53;15.00;;;13.70;94.80;;;;;;5003515;28;20459;-71
2022/10/11 11:04:09;;;;;;;22.57;16.17;;;13.80;95.10;;;;;;5011224;28;20436;-71
2022/10/11 11:06:43;;;;;;;24.20;15.90;;;13.80;95.10;;;;;;5015183;28;20469;-72
2022/10/11 11:09:58;;;;;;;23.77;15.93;;;13.80;95.10;;;;;;5016524;28;20464;-72
2022/10/11 11:12:45;;;;;;;22.93;16.07;;;13.80;95.00;;;;;;5014292;28;20471;-72
2022/10/11 11:15:44;;;;;;;24.33;16.30;;;13.80;95.00;;;;;;4996321;28;20463;-76
2022/10/11 11:18:29;;;;;;;24.30;16.73;;;13.90;95.10;;;;;;5008069;28;20627;-77
2022/10/11 11:21:21;;;;;;;26.93;15.93;;;13.90;95.10;;;;;;5002125;28;20466;-76
2022/10/11 11:24:31;;;;;;;25.63;16.43;;;13.90;95.30;;;;;;5014014;28;20585;-75
2022/10/11 11:27:05;;;;;;;25.40;16.33;;;13.90;95.50;;;;;;5009940;28;20505;-73
2022/10/11 11:30:07;;;;;;;24.33;15.30;;;13.90;95.60;;;;;;5021232;28;20469;-74
2022/10/11 11:32:33;;;;;;;22.70;14.40;;;13.90;95.60;;;;;;5013948;28;20509;-74
2022/10/11 11:35:14;;;;;;;20.57;14.97;;;13.90;95.90;;;;;;4994412;28;20485;-74
2022/10/11 11:37:43;;;;;;;21.27;15.03;;;13.90;95.50;;;;;;5026876;28;20482;-75
2022/10/11 11:40:15;;;;;;;24.47;16.00;;;14.00;95.60;;;;;;5018771;28;20468;-76
2022/10/11 11:42:47;;;;;;;18.80;13.80;;;14.00;95.70;;;;;;5030052;28;20434;-73
2022/10/11 11:45:27;;;;;;;21.67;14.83;;;14.00;95.70;;;;;;5016978;28;20435;-75
2022/10/11 11:48:17;;;;;;;19.63;13.37;;;14.00;95.60;;;;;;5016512;28;20450;-75
2022/10/11 11:50:49;;;;;;;24.90;14.60;;;14.00;95.50;;;;;;5014651;28;20819;-76
2022/10/11 11:53:20;;;;;;;24.30;15.63;;;14.00;95.40;;;;;;5010781;28;20419;-73
2022/10/11 11:56:01;;;;;;;21.50;13.33;;;14.10;95.50;;;;;;5020457;28;20451;-73
2022/10/11 11:58:48;;;;;;;21.07;14.23;;;14.10;95.50;;;;;;5025711;28;20799;-77
2022/10/11 12:01:28;;;;;;;19.83;14.30;;;14.10;95.40;;;;;;5007791;28;20578;-76
2022/10/11 12:04:05;;;;;;;16.63;12.40;;;14.10;95.30;;;;;;5015284;28;20435;-75
2022/10/11 12:06:34;;;;;;;21.50;13.00;;;14.10;95.30;;;;;;5030111;28;21029;-75
2022/10/11 12:09:32;;;;;;;18.30;12.00;;;14.10;95.20;;;;;;5014048;28;20435;-76
2022/10/11 12:12:06;;;;;;;20.87;12.70;;;14.20;95.10;;;;;;4996967;28;20449;-72
2022/10/11 12:14:36;;;;;;;22.33;12.67;;;14.20;94.90;;;;;;4995644;28;21012;-72
2022/10/11 12:17:17;;;;;;;18.97;12.13;;;14.20;94.80;;;;;;5012098;28;20454;-72
2022/10/11 12:20:13;;;;;;;25.30;12.53;;;14.20;94.70;;;;;;5000998;28;20440;-76
2022/10/11 12:22:48;;;;;;;15.90;10.73;;;14.20;94.70;;;;;;5007553;28;20447;-71
2022/10/11 12:25:14;;;;;;;15.97;10.10;;;14.20;94.60;;;;;;4996513;28;20482;-70
2022/10/11 12:27:43;;;;;;;17.77;11.30;;;14.30;94.60;;;;;;5020750;28;20443;-71
2022/10/11 12:30:45;;;;;;;15.10;10.60;;;14.30;94.50;;;;;;5033248;28;20841;-71
2022/10/11 12:33:24;;;;;;;16.43;11.47;;;14.30;94.40;;;;;;5030137;28;20511;-71
2022/10/11 12:35:53;;;;;;;15.27;10.03;;;14.30;94.40;;;;;;5031561;28;20474;-71
2022/10/11 12:38:30;;;;;;;16.40;9.60;;;14.30;94.30;;;;;;5018702;28;20420;-71
2022/10/11 12:41:24;;;;;;;15.77;10.43;;;14.30;94.30;;;;;;4992895;28;20783;-71
2022/10/11 12:43:50;;;;;;;15.37;9.90;;;14.30;94.20;;;;;;5028267;28;20440;-71
2022/10/11 12:46:29;;;;;;;19.03;11.50;;;14.40;94.20;;;;;;5010094;28;20501;-71
2022/10/11 12:49:14;;;;;;;16.53;10.10;;;14.40;94.10;;;;;;5025391;28;20477;-71
2022/10/11 12:52:01;;;;;;;17.83;10.13;;;14.40;94.10;;;;;;5032929;28;20454;-71
2022/10/11 12:55:08;;;;;;;15.77;9.60;;;14.40;94.00;;;;;;5016877;28;20505;-71
2022/10/11 12:58:00;;;;;;;17.47;8.90;;;14.40;93.90;;;;;;5008842;28;20540;-71
2022/10/11 13:00:29;;;;;;;16.20;10.23;;;14.40;93.90;;;;;;4992015;28;20522;-71
2022/10/11 13:03:03;;;;;;;15.03;9.80;;;14.50;93.90;;;;;;5003880;28;20435;-71
2022/10/11 13:05:43;;;;;;;15.73;9.47;;;14.50;93.90;;;;;;4995716;28;20929;-71
2022/10/11 13:08:36;;;;;;;15.37;9.60;;;14.50;93.90;;;;;;5021693;28;20635;-71
2022/10/11 13:11:06;;;;;;;15.33;10.57;;;14.50;93.80;;;;;;5027423;28;20562;-71
2022/10/11 13:13:53;;;;;;;16.23;10.00;;;14.50;93.80;;;;;;5011861;28;20462;-71